Historyczne dane pomiarowe

Dodano dane terminowe – wersja testowa.

Dane z okresu 1951-2019

Wersja bazy: 1.34 [2019-03-16, lista zmian], aktualizacja planowana na 2019-04-15

Dane meteo z obszaru Polski uzyskane na podstawie danych udostępnionych przez Instytut Meteorologii i Gospodarki Wodnej – Państwowy Instytut Badawczy.

 

Wybierz Datę:    

       

TemperaturaWilgotnośćWiatrCiśnienieOpadyŚniegCzas trwania zjawisk
 Stacja t tx tn tng RH VA  wxwx mslp ppp RRR   cm mm wxwxwxwxwxwxwx
1968-08-13 15.4 18.9 10.6- 61.3- 6.0 7.0---- 0.0------------
1968-08-14 16.3 22.7 6.0- 64.8- 2.7 1.3---- 0.0------------
1968-08-15 14.8 22.9 11.3- 77.3- 6.3 6.7---- 0.7------------
1968-08-16 14.5 20.0 9.0- 65.0- 6.3 5.0---- 0.3------------
1968-08-17 19.1 24.0 10.9- 60.5- 4.3 6.0---- 2.8------------
1968-08-18 15.0 20.9 13.1- 70.8- 4.3 4.3---- 0.0------------
1968-08-19 15.7 20.2 7.3- 65.0- 5.7 1.7---- 1.9------------
1968-08-20 11.6 17.5 10.7- 94.3- 7.3 2.0---- 7.4------------
1968-08-21 12.1 16.4 10.3- 85.0- 6.3 4.7---- 0.3------------
1968-08-22 15.3 22.4 6.7- 68.0- 0.3 1.0---- 0.0------------
1968-08-23 21.8 30.3 14.1- 62.0- 1.3 3.0---- 0.0------------
1968-08-24 21.1 28.0 14.8- 61.8- 1.7 6.0---- 0.0------------
1968-08-25 19.8 26.5 16.0- 71.0- 3.3 4.0---- 2.0------------
1968-08-26 18.1 23.5 14.9- 89.0- 5.7 3.3---- 13.7------------
1968-08-27 19.3 26.7 15.2- 82.3- 4.0 2.0---- 0.0------------
1968-08-28 19.7 28.4 12.9- 76.8- 2.0 2.7---- 0.0------------
1968-08-29 19.7 27.5 11.9- 76.5- 3.0 2.3---- 0.0------------
1968-08-30 20.3 26.8 14.3- 77.5- 2.3 1.7---- 0.0------------
1968-08-31 21.1 29.0 12.5- 72.5- 1.0 3.3---- 0.1------------
1968-09-01 20.3 29.2 14.6- 76.5- 6.0 4.0---- 0.1------------
1968-09-02 20.2 26.9 13.5- 76.5- 3.3 1.0---- 0.0------------
1968-09-03 20.3 27.7 11.0- 72.5- 1.3 1.0---- 0.0------------
1968-09-04 20.6 28.3 13.1- 60.5- 4.7 3.0---- 0.0------------
1968-09-05 19.9 29.3 10.0- 56.5- 5.0 4.3---- 0.0------------
1968-09-06 17.5 28.1 10.1- 65.8- 2.0 3.3---- 0.0------------
1968-09-07 18.7 29.5 9.5- 58.5- 1.3 2.0---- 0.0------------
1968-09-08 19.6 26.4 12.0- 61.5- 3.0 2.0---- 0.0------------
1968-09-09 12.7 19.4 9.4- 77.5- 4.7 1.7---- 0.5------------
1968-09-10 9.4 19.5 0.9- 79.5- 0.3 1.0---- 0.0------------
1968-09-11 9.5 19.4 -0.4- 69.5- 0.7 1.3---- 0.0------------
158.4 ms

 

Źródłem pochodzenia danych jest Instytut Meteorologii i Gospodarki Wodnej – Państwowy Instytut Badawczy. Dane Instytutu Meteorologii i Gospodarki Wodnej – Państwowego Instytutu Badawczego zostały przetworzone.

Dane źródłowe można odnaleźć na stronie https://dane.imgw.pl